sensor_id;sensor_type;location;lat;lon;timestamp;P1;durP1;ratioP1;P2;durP2;ratioP2
11090;SDS011;5599;52.210;21.046;2023-07-13T00:02:15;6.40;;;5.80;;
11090;SDS011;5599;52.210;21.046;2023-07-13T00:04:44;7.68;;;6.88;;
11090;SDS011;5599;52.210;21.046;2023-07-13T00:07:13;7.72;;;6.93;;
11090;SDS011;5599;52.210;21.046;2023-07-13T00:09:42;6.55;;;5.95;;
11090;SDS011;5599;52.210;21.046;2023-07-13T00:12:21;7.53;;;6.72;;
11090;SDS011;5599;52.210;21.046;2023-07-13T00:14:52;8.48;;;6.93;;
11090;SDS011;5599;52.210;21.046;2023-07-13T00:17:23;7.47;;;6.68;;
11090;SDS011;5599;52.210;21.046;2023-07-13T00:19:52;8.02;;;7.22;;
11090;SDS011;5599;52.210;21.046;2023-07-13T00:22:22;7.50;;;6.80;;
11090;SDS011;5599;52.210;21.046;2023-07-13T00:24:53;7.15;;;6.45;;
11090;SDS011;5599;52.210;21.046;2023-07-13T00:27:23;7.15;;;6.40;;
11090;SDS011;5599;52.210;21.046;2023-07-13T00:29:53;8.30;;;7.05;;
11090;SDS011;5599;52.210;21.046;2023-07-13T00:32:24;8.88;;;6.70;;
11090;SDS011;5599;52.210;21.046;2023-07-13T00:34:53;6.82;;;6.32;;
11090;SDS011;5599;52.210;21.046;2023-07-13T00:37:23;7.15;;;6.45;;
11090;SDS011;5599;52.210;21.046;2023-07-13T00:39:52;7.00;;;6.30;;
11090;SDS011;5599;52.210;21.046;2023-07-13T00:42:22;7.32;;;6.63;;
11090;SDS011;5599;52.210;21.046;2023-07-13T00:45:02;6.75;;;6.05;;
11090;SDS011;5599;52.210;21.046;2023-07-13T00:47:36;7.53;;;6.78;;
11090;SDS011;5599;52.210;21.046;2023-07-13T00:50:06;7.15;;;6.55;;
11090;SDS011;5599;52.210;21.046;2023-07-13T00:52:50;7.68;;;6.88;;
11090;SDS011;5599;52.210;21.046;2023-07-13T00:55:25;7.93;;;6.50;;
11090;SDS011;5599;52.210;21.046;2023-07-13T00:57:55;7.80;;;7.00;;
11090;SDS011;5599;52.210;21.046;2023-07-13T01:00:24;9.38;;;7.18;;
11090;SDS011;5599;52.210;21.046;2023-07-13T01:02:56;7.97;;;7.13;;
11090;SDS011;5599;52.210;21.046;2023-07-13T01:05:25;7.43;;;6.70;;
11090;SDS011;5599;52.210;21.046;2023-07-13T01:07:55;7.72;;;7.00;;
11090;SDS011;5599;52.210;21.046;2023-07-13T01:10:24;8.98;;;6.80;;
11090;SDS011;5599;52.210;21.046;2023-07-13T01:12:54;8.38;;;6.70;;
11090;SDS011;5599;52.210;21.046;2023-07-13T01:15:34;7.68;;;6.97;;
11090;SDS011;5599;52.210;21.046;2023-07-13T01:18:08;8.30;;;6.90;;
11090;SDS011;5599;52.210;21.046;2023-07-13T01:20:41;8.73;;;7.30;;
11090;SDS011;5599;52.210;21.046;2023-07-13T01:23:17;8.13;;;7.32;;
11090;SDS011;5599;52.210;21.046;2023-07-13T01:25:47;8.07;;;7.35;;
11090;SDS011;5599;52.210;21.046;2023-07-13T01:28:17;7.75;;;6.95;;
11090;SDS011;5599;52.210;21.046;2023-07-13T01:30:47;7.60;;;6.90;;
11090;SDS011;5599;52.210;21.046;2023-07-13T01:33:17;8.13;;;7.45;;
11090;SDS011;5599;52.210;21.046;2023-07-13T01:35:47;9.18;;;6.72;;
11090;SDS011;5599;52.210;21.046;2023-07-13T01:38:17;9.05;;;7.95;;
11090;SDS011;5599;52.210;21.046;2023-07-13T01:40:48;8.77;;;7.97;;
11090;SDS011;5599;52.210;21.046;2023-07-13T01:43:17;8.38;;;7.57;;
11090;SDS011;5599;52.210;21.046;2023-07-13T01:45:48;7.95;;;7.25;;
11090;SDS011;5599;52.210;21.046;2023-07-13T01:48:17;8.35;;;7.53;;
11090;SDS011;5599;52.210;21.046;2023-07-13T01:50:49;8.45;;;7.53;;
11090;SDS011;5599;52.210;21.046;2023-07-13T01:53:18;8.23;;;7.43;;
11090;SDS011;5599;52.210;21.046;2023-07-13T01:55:48;9.57;;;7.35;;
11090;SDS011;5599;52.210;21.046;2023-07-13T01:58:17;8.10;;;7.40;;
11090;SDS011;5599;52.210;21.046;2023-07-13T02:00:47;8.65;;;7.78;;
11090;SDS011;5599;52.210;21.046;2023-07-13T02:03:17;8.10;;;7.40;;
11090;SDS011;5599;52.210;21.046;2023-07-13T02:05:48;9.88;;;7.53;;
11090;SDS011;5599;52.210;21.046;2023-07-13T02:08:17;9.30;;;7.75;;
11090;SDS011;5599;52.210;21.046;2023-07-13T02:10:47;8.77;;;7.88;;
11090;SDS011;5599;52.210;21.046;2023-07-13T02:13:16;8.48;;;7.32;;
11090;SDS011;5599;52.210;21.046;2023-07-13T02:15:45;9.15;;;8.13;;
11090;SDS011;5599;52.210;21.046;2023-07-13T02:18:15;12.25;;;7.78;;
11090;SDS011;5599;52.210;21.046;2023-07-13T02:20:45;9.45;;;7.93;;
11090;SDS011;5599;52.210;21.046;2023-07-13T02:23:15;11.07;;;8.32;;
11090;SDS011;5599;52.210;21.046;2023-07-13T02:25:46;9.65;;;8.02;;
11090;SDS011;5599;52.210;21.046;2023-07-13T02:28:15;8.30;;;7.43;;
11090;SDS011;5599;52.210;21.046;2023-07-13T02:30:44;8.63;;;7.72;;
11090;SDS011;5599;52.210;21.046;2023-07-13T02:33:13;9.30;;;8.43;;
11090;SDS011;5599;52.210;21.046;2023-07-13T02:35:43;8.73;;;7.85;;
11090;SDS011;5599;52.210;21.046;2023-07-13T02:38:12;10.98;;;8.63;;
11090;SDS011;5599;52.210;21.046;2023-07-13T02:40:42;9.00;;;8.20;;
11090;SDS011;5599;52.210;21.046;2023-07-13T02:43:12;11.38;;;7.85;;
11090;SDS011;5599;52.210;21.046;2023-07-13T02:45:43;9.30;;;8.40;;
11090;SDS011;5599;52.210;21.046;2023-07-13T02:48:13;9.90;;;8.60;;
11090;SDS011;5599;52.210;21.046;2023-07-13T02:50:43;10.45;;;7.85;;
11090;SDS011;5599;52.210;21.046;2023-07-13T02:53:13;9.00;;;8.10;;
11090;SDS011;5599;52.210;21.046;2023-07-13T02:55:44;9.02;;;8.23;;
11090;SDS011;5599;52.210;21.046;2023-07-13T02:58:14;9.00;;;7.97;;
11090;SDS011;5599;52.210;21.046;2023-07-13T03:00:44;8.68;;;7.88;;
11090;SDS011;5599;52.210;21.046;2023-07-13T03:03:14;8.63;;;7.78;;
11090;SDS011;5599;52.210;21.046;2023-07-13T03:05:44;10.73;;;8.20;;
11090;SDS011;5599;52.210;21.046;2023-07-13T03:08:22;8.13;;;7.32;;
11090;SDS011;5599;52.210;21.046;2023-07-13T03:11:00;10.20;;;8.60;;
11090;SDS011;5599;52.210;21.046;2023-07-13T03:13:32;8.90;;;8.10;;
11090;SDS011;5599;52.210;21.046;2023-07-13T03:16:04;9.68;;;8.75;;
11090;SDS011;5599;52.210;21.046;2023-07-13T03:18:34;9.45;;;8.55;;
11090;SDS011;5599;52.210;21.046;2023-07-13T03:21:07;10.50;;;9.43;;
11090;SDS011;5599;52.210;21.046;2023-07-13T03:23:38;10.40;;;8.20;;
11090;SDS011;5599;52.210;21.046;2023-07-13T03:26:09;9.65;;;8.65;;
11090;SDS011;5599;52.210;21.046;2023-07-13T03:28:40;9.32;;;8.50;;
11090;SDS011;5599;52.210;21.046;2023-07-13T03:31:15;9.55;;;8.75;;
11090;SDS011;5599;52.210;21.046;2023-07-13T03:33:46;9.63;;;8.73;;
11090;SDS011;5599;52.210;21.046;2023-07-13T03:36:17;9.93;;;8.93;;
11090;SDS011;5599;52.210;21.046;2023-07-13T03:38:48;9.52;;;8.10;;
11090;SDS011;5599;52.210;21.046;2023-07-13T03:41:26;9.40;;;8.40;;
11090;SDS011;5599;52.210;21.046;2023-07-13T03:43:56;11.65;;;9.57;;
11090;SDS011;5599;52.210;21.046;2023-07-13T03:46:26;12.65;;;9.35;;
11090;SDS011;5599;52.210;21.046;2023-07-13T03:48:56;10.68;;;9.45;;
11090;SDS011;5599;52.210;21.046;2023-07-13T03:51:26;11.63;;;9.38;;
11090;SDS011;5599;52.210;21.046;2023-07-13T03:53:55;10.25;;;9.35;;
11090;SDS011;5599;52.210;21.046;2023-07-13T03:56:24;9.40;;;8.40;;
11090;SDS011;5599;52.210;21.046;2023-07-13T03:58:56;16.50;;;8.95;;
11090;SDS011;5599;52.210;21.046;2023-07-13T04:01:25;9.25;;;8.18;;
11090;SDS011;5599;52.210;21.046;2023-07-13T04:03:55;11.40;;;8.63;;
11090;SDS011;5599;52.210;21.046;2023-07-13T04:06:29;10.32;;;9.00;;
11090;SDS011;5599;52.210;21.046;2023-07-13T04:09:00;12.02;;;8.73;;
11090;SDS011;5599;52.210;21.046;2023-07-13T04:11:34;9.60;;;8.55;;
11090;SDS011;5599;52.210;21.046;2023-07-13T04:14:05;9.88;;;8.82;;
11090;SDS011;5599;52.210;21.046;2023-07-13T04:16:34;9.45;;;8.45;;
11090;SDS011;5599;52.210;21.046;2023-07-13T04:19:03;9.05;;;8.15;;
11090;SDS011;5599;52.210;21.046;2023-07-13T04:21:32;8.35;;;7.53;;
11090;SDS011;5599;52.210;21.046;2023-07-13T04:24:02;10.52;;;8.50;;
11090;SDS011;5599;52.210;21.046;2023-07-13T04:26:32;10.95;;;8.35;;
11090;SDS011;5599;52.210;21.046;2023-07-13T04:29:03;10.35;;;8.00;;
11090;SDS011;5599;52.210;21.046;2023-07-13T04:31:32;9.90;;;8.80;;
11090;SDS011;5599;52.210;21.046;2023-07-13T04:34:02;9.05;;;8.15;;
11090;SDS011;5599;52.210;21.046;2023-07-13T04:36:31;10.60;;;9.00;;
11090;SDS011;5599;52.210;21.046;2023-07-13T04:39:00;9.82;;;8.38;;
11090;SDS011;5599;52.210;21.046;2023-07-13T04:41:29;9.30;;;8.48;;
11090;SDS011;5599;52.210;21.046;2023-07-13T04:44:00;9.50;;;8.27;;
11090;SDS011;5599;52.210;21.046;2023-07-13T04:46:30;10.50;;;9.43;;
11090;SDS011;5599;52.210;21.046;2023-07-13T04:48:59;11.80;;;10.70;;
11090;SDS011;5599;52.210;21.046;2023-07-13T04:51:31;11.40;;;10.30;;
11090;SDS011;5599;52.210;21.046;2023-07-13T04:54:00;10.93;;;9.82;;
11090;SDS011;5599;52.210;21.046;2023-07-13T04:56:29;10.98;;;9.63;;
11090;SDS011;5599;52.210;21.046;2023-07-13T04:58:59;13.68;;;11.15;;
11090;SDS011;5599;52.210;21.046;2023-07-13T05:01:29;10.77;;;9.63;;
11090;SDS011;5599;52.210;21.046;2023-07-13T05:03:58;10.98;;;9.95;;
11090;SDS011;5599;52.210;21.046;2023-07-13T05:06:27;13.05;;;10.15;;
11090;SDS011;5599;52.210;21.046;2023-07-13T05:08:57;11.90;;;9.93;;
11090;SDS011;5599;52.210;21.046;2023-07-13T05:11:26;12.15;;;10.57;;
11090;SDS011;5599;52.210;21.046;2023-07-13T05:13:55;12.65;;;11.27;;
11090;SDS011;5599;52.210;21.046;2023-07-13T05:16:26;13.95;;;11.13;;
11090;SDS011;5599;52.210;21.046;2023-07-13T05:18:56;12.80;;;10.77;;
11090;SDS011;5599;52.210;21.046;2023-07-13T05:21:25;11.70;;;10.50;;
11090;SDS011;5599;52.210;21.046;2023-07-13T05:23:55;11.38;;;10.23;;
11090;SDS011;5599;52.210;21.046;2023-07-13T05:26:37;12.30;;;11.10;;
11090;SDS011;5599;52.210;21.046;2023-07-13T05:29:06;12.82;;;10.98;;
11090;SDS011;5599;52.210;21.046;2023-07-13T05:31:37;11.40;;;10.30;;
11090;SDS011;5599;52.210;21.046;2023-07-13T05:34:07;11.50;;;10.50;;
11090;SDS011;5599;52.210;21.046;2023-07-13T05:36:36;11.73;;;10.35;;
11090;SDS011;5599;52.210;21.046;2023-07-13T05:39:06;11.25;;;10.13;;
11090;SDS011;5599;52.210;21.046;2023-07-13T05:41:35;10.52;;;9.55;;
11090;SDS011;5599;52.210;21.046;2023-07-13T05:44:05;11.65;;;10.55;;
11090;SDS011;5599;52.210;21.046;2023-07-13T05:46:34;10.55;;;9.43;;
11090;SDS011;5599;52.210;21.046;2023-07-13T05:49:05;11.55;;;9.77;;
11090;SDS011;5599;52.210;21.046;2023-07-13T05:51:34;10.65;;;8.70;;
11090;SDS011;5599;52.210;21.046;2023-07-13T05:54:03;11.00;;;9.00;;
11090;SDS011;5599;52.210;21.046;2023-07-13T05:56:32;11.27;;;10.23;;
11090;SDS011;5599;52.210;21.046;2023-07-13T05:59:01;12.93;;;9.27;;
11090;SDS011;5599;52.210;21.046;2023-07-13T06:01:31;12.23;;;10.15;;
11090;SDS011;5599;52.210;21.046;2023-07-13T06:04:00;12.95;;;10.60;;
11090;SDS011;5599;52.210;21.046;2023-07-13T06:06:31;13.57;;;11.45;;
11090;SDS011;5599;52.210;21.046;2023-07-13T06:09:00;12.25;;;10.93;;
11090;SDS011;5599;52.210;21.046;2023-07-13T06:11:30;10.90;;;9.73;;
11090;SDS011;5599;52.210;21.046;2023-07-13T06:13:59;10.93;;;9.80;;
11090;SDS011;5599;52.210;21.046;2023-07-13T06:16:28;10.70;;;9.57;;
11090;SDS011;5599;52.210;21.046;2023-07-13T06:18:57;12.43;;;9.65;;
11090;SDS011;5599;52.210;21.046;2023-07-13T06:21:27;10.68;;;8.13;;
11090;SDS011;5599;52.210;21.046;2023-07-13T06:23:57;9.20;;;8.30;;
11090;SDS011;5599;52.210;21.046;2023-07-13T06:26:27;11.90;;;9.27;;
11090;SDS011;5599;52.210;21.046;2023-07-13T06:28:56;11.68;;;8.93;;
11090;SDS011;5599;52.210;21.046;2023-07-13T06:31:25;10.35;;;9.27;;
11090;SDS011;5599;52.210;21.046;2023-07-13T06:33:55;9.88;;;8.88;;
11090;SDS011;5599;52.210;21.046;2023-07-13T06:36:24;11.63;;;8.65;;
11090;SDS011;5599;52.210;21.046;2023-07-13T06:38:53;8.07;;;6.85;;
11090;SDS011;5599;52.210;21.046;2023-07-13T06:41:24;7.53;;;6.93;;
11090;SDS011;5599;52.210;21.046;2023-07-13T06:43:53;7.72;;;7.03;;
11090;SDS011;5599;52.210;21.046;2023-07-13T06:46:22;10.77;;;6.20;;
11090;SDS011;5599;52.210;21.046;2023-07-13T06:48:52;7.75;;;6.20;;
11090;SDS011;5599;52.210;21.046;2023-07-13T06:51:21;7.43;;;6.15;;
11090;SDS011;5599;52.210;21.046;2023-07-13T06:53:50;6.28;;;5.68;;
11090;SDS011;5599;52.210;21.046;2023-07-13T06:56:19;6.15;;;5.55;;
11090;SDS011;5599;52.210;21.046;2023-07-13T06:58:50;7.53;;;5.10;;
11090;SDS011;5599;52.210;21.046;2023-07-13T07:01:19;6.43;;;4.93;;
11090;SDS011;5599;52.210;21.046;2023-07-13T07:03:49;5.25;;;4.75;;
11090;SDS011;5599;52.210;21.046;2023-07-13T07:06:19;6.95;;;5.78;;
11090;SDS011;5599;52.210;21.046;2023-07-13T07:08:51;5.88;;;5.20;;
11090;SDS011;5599;52.210;21.046;2023-07-13T07:11:21;5.18;;;4.78;;
11090;SDS011;5599;52.210;21.046;2023-07-13T07:13:53;5.90;;;5.40;;
11090;SDS011;5599;52.210;21.046;2023-07-13T07:16:24;5.75;;;4.53;;
11090;SDS011;5599;52.210;21.046;2023-07-13T07:18:54;5.03;;;4.53;;
11090;SDS011;5599;52.210;21.046;2023-07-13T07:21:23;5.32;;;4.75;;
11090;SDS011;5599;52.210;21.046;2023-07-13T07:23:53;5.50;;;4.88;;
11090;SDS011;5599;52.210;21.046;2023-07-13T07:26:22;4.95;;;4.55;;
11090;SDS011;5599;52.210;21.046;2023-07-13T07:28:56;5.22;;;4.70;;
11090;SDS011;5599;52.210;21.046;2023-07-13T07:31:28;4.85;;;4.45;;
11090;SDS011;5599;52.210;21.046;2023-07-13T07:34:00;4.75;;;4.35;;
11090;SDS011;5599;52.210;21.046;2023-07-13T07:36:30;5.30;;;4.80;;
11090;SDS011;5599;52.210;21.046;2023-07-13T07:39:02;5.78;;;4.80;;
11090;SDS011;5599;52.210;21.046;2023-07-13T07:41:32;5.13;;;4.40;;
11090;SDS011;5599;52.210;21.046;2023-07-13T07:44:05;6.75;;;5.28;;
11090;SDS011;5599;52.210;21.046;2023-07-13T07:46:36;5.25;;;4.75;;
11090;SDS011;5599;52.210;21.046;2023-07-13T07:49:08;5.40;;;4.90;;
11090;SDS011;5599;52.210;21.046;2023-07-13T07:51:37;5.97;;;5.38;;
11090;SDS011;5599;52.210;21.046;2023-07-13T07:54:06;5.15;;;4.60;;
11090;SDS011;5599;52.210;21.046;2023-07-13T07:56:40;8.93;;;5.60;;
11090;SDS011;5599;52.210;21.046;2023-07-13T07:59:14;6.38;;;5.38;;
11090;SDS011;5599;52.210;21.046;2023-07-13T08:01:46;7.35;;;4.65;;
11090;SDS011;5599;52.210;21.046;2023-07-13T08:04:20;5.00;;;4.47;;
11090;SDS011;5599;52.210;21.046;2023-07-13T08:06:52;6.15;;;4.18;;
11090;SDS011;5599;52.210;21.046;2023-07-13T08:09:23;4.25;;;3.10;;
11090;SDS011;5599;52.210;21.046;2023-07-13T08:11:52;4.30;;;3.63;;
11090;SDS011;5599;52.210;21.046;2023-07-13T08:14:26;5.63;;;3.88;;
11090;SDS011;5599;52.210;21.046;2023-07-13T08:17:08;3.60;;;3.30;;
11090;SDS011;5599;52.210;21.046;2023-07-13T08:19:38;5.07;;;3.58;;
11090;SDS011;5599;52.210;21.046;2023-07-13T08:22:07;4.43;;;4.10;;
11090;SDS011;5599;52.210;21.046;2023-07-13T08:24:36;4.47;;;4.07;;
11090;SDS011;5599;52.210;21.046;2023-07-13T08:27:05;4.00;;;3.63;;
11090;SDS011;5599;52.210;21.046;2023-07-13T08:29:36;4.03;;;3.58;;
11090;SDS011;5599;52.210;21.046;2023-07-13T08:32:06;4.75;;;4.25;;
11090;SDS011;5599;52.210;21.046;2023-07-13T08:34:38;5.22;;;3.47;;
11090;SDS011;5599;52.210;21.046;2023-07-13T08:37:07;5.10;;;3.58;;
11090;SDS011;5599;52.210;21.046;2023-07-13T08:39:37;3.67;;;3.38;;
11090;SDS011;5599;52.210;21.046;2023-07-13T08:42:26;3.50;;;3.20;;
11090;SDS011;5599;52.210;21.046;2023-07-13T08:45:14;4.20;;;3.80;;
11090;SDS011;5599;52.210;21.046;2023-07-13T08:47:49;4.25;;;3.90;;
11090;SDS011;5599;52.210;21.046;2023-07-13T08:50:23;4.30;;;3.90;;
11090;SDS011;5599;52.210;21.046;2023-07-13T08:52:56;4.57;;;4.13;;
11090;SDS011;5599;52.210;21.046;2023-07-13T08:55:27;4.70;;;4.20;;
11090;SDS011;5599;52.210;21.046;2023-07-13T08:58:02;4.63;;;4.10;;
11090;SDS011;5599;52.210;21.046;2023-07-13T09:00:40;4.68;;;4.28;;
11090;SDS011;5599;52.210;21.046;2023-07-13T09:03:19;4.88;;;4.45;;
11090;SDS011;5599;52.210;21.046;2023-07-13T09:05:52;6.05;;;5.20;;
11090;SDS011;5599;52.210;21.046;2023-07-13T09:08:30;7.07;;;4.80;;
11090;SDS011;5599;52.210;21.046;2023-07-13T09:11:11;6.10;;;5.03;;
11090;SDS011;5599;52.210;21.046;2023-07-13T09:13:54;5.18;;;4.78;;
11090;SDS011;5599;52.210;21.046;2023-07-13T09:16:30;5.20;;;4.80;;
11090;SDS011;5599;52.210;21.046;2023-07-13T09:19:02;4.88;;;4.40;;
11090;SDS011;5599;52.210;21.046;2023-07-13T09:21:36;5.25;;;4.80;;
11090;SDS011;5599;52.210;21.046;2023-07-13T09:24:22;5.30;;;4.80;;
11090;SDS011;5599;52.210;21.046;2023-07-13T09:27:03;5.95;;;4.80;;
11090;SDS011;5599;52.210;21.046;2023-07-13T09:29:45;5.82;;;4.70;;
11090;SDS011;5599;52.210;21.046;2023-07-13T09:32:20;5.60;;;5.10;;
11090;SDS011;5599;52.210;21.046;2023-07-13T09:34:52;5.30;;;4.53;;
11090;SDS011;5599;52.210;21.046;2023-07-13T09:37:23;5.50;;;4.80;;
11090;SDS011;5599;52.210;21.046;2023-07-13T09:39:58;5.68;;;4.65;;
11090;SDS011;5599;52.210;21.046;2023-07-13T09:42:31;5.50;;;4.63;;
11090;SDS011;5599;52.210;21.046;2023-07-13T09:45:02;6.05;;;4.20;;
11090;SDS011;5599;52.210;21.046;2023-07-13T09:47:37;7.10;;;4.50;;
11090;SDS011;5599;52.210;21.046;2023-07-13T09:50:10;4.13;;;3.70;;
11090;SDS011;5599;52.210;21.046;2023-07-13T09:52:44;8.68;;;4.38;;
11090;SDS011;5599;52.210;21.046;2023-07-13T09:55:25;6.45;;;3.60;;
11090;SDS011;5599;52.210;21.046;2023-07-13T09:57:57;4.35;;;3.60;;
11090;SDS011;5599;52.210;21.046;2023-07-13T10:00:28;3.67;;;3.30;;
11090;SDS011;5599;52.210;21.046;2023-07-13T10:03:00;4.22;;;3.58;;
11090;SDS011;5599;52.210;21.046;2023-07-13T10:05:39;6.05;;;3.53;;
11090;SDS011;5599;52.210;21.046;2023-07-13T10:08:20;5.20;;;3.50;;
11090;SDS011;5599;52.210;21.046;2023-07-13T10:10:52;5.57;;;4.10;;
11090;SDS011;5599;52.210;21.046;2023-07-13T10:13:27;4.32;;;3.60;;
11090;SDS011;5599;52.210;21.046;2023-07-13T10:16:04;3.92;;;3.50;;
11090;SDS011;5599;52.210;21.046;2023-07-13T10:18:39;5.22;;;3.60;;
11090;SDS011;5599;52.210;21.046;2023-07-13T10:21:14;7.35;;;3.95;;
11090;SDS011;5599;52.210;21.046;2023-07-13T10:24:03;4.35;;;3.70;;
11090;SDS011;5599;52.210;21.046;2023-07-13T10:26:39;4.82;;;3.45;;
11090;SDS011;5599;52.210;21.046;2023-07-13T10:29:23;6.72;;;3.75;;
11090;SDS011;5599;52.210;21.046;2023-07-13T10:31:55;8.45;;;4.03;;
11090;SDS011;5599;52.210;21.046;2023-07-13T10:34:27;6.15;;;4.00;;
11090;SDS011;5599;52.210;21.046;2023-07-13T10:36:58;4.78;;;3.50;;
11090;SDS011;5599;52.210;21.046;2023-07-13T10:39:29;3.67;;;3.38;;
11090;SDS011;5599;52.210;21.046;2023-07-13T10:41:59;3.95;;;3.60;;
11090;SDS011;5599;52.210;21.046;2023-07-13T10:44:32;7.18;;;3.60;;
11090;SDS011;5599;52.210;21.046;2023-07-13T10:47:02;4.43;;;3.47;;
11090;SDS011;5599;52.210;21.046;2023-07-13T10:49:37;4.85;;;3.35;;
11090;SDS011;5599;52.210;21.046;2023-07-13T10:52:20;4.63;;;2.80;;
11090;SDS011;5599;52.210;21.046;2023-07-13T10:58:11;8.32;;;4.18;;
11090;SDS011;5599;52.210;21.046;2023-07-13T11:00:43;6.97;;;4.03;;
11090;SDS011;5599;52.210;21.046;2023-07-13T11:03:17;5.53;;;4.40;;
11090;SDS011;5599;52.210;21.046;2023-07-13T11:05:51;8.27;;;3.92;;
11090;SDS011;5599;52.210;21.046;2023-07-13T11:08:33;10.05;;;4.45;;
11090;SDS011;5599;52.210;21.046;2023-07-13T11:16:56;8.57;;;5.55;;
11090;SDS011;5599;52.210;21.046;2023-07-13T11:19:39;11.38;;;5.90;;
11090;SDS011;5599;52.210;21.046;2023-07-13T11:22:12;7.15;;;5.80;;
11090;SDS011;5599;52.210;21.046;2023-07-13T11:24:51;7.88;;;6.13;;
11090;SDS011;5599;52.210;21.046;2023-07-13T11:27:36;8.43;;;6.10;;
11090;SDS011;5599;52.210;21.046;2023-07-13T11:33:02;8.65;;;6.43;;
11090;SDS011;5599;52.210;21.046;2023-07-13T11:35:41;11.18;;;7.18;;
11090;SDS011;5599;52.210;21.046;2023-07-13T11:38:20;8.90;;;6.82;;
11090;SDS011;5599;52.210;21.046;2023-07-13T11:40:56;9.15;;;6.38;;
11090;SDS011;5599;52.210;21.046;2023-07-13T11:43:30;8.98;;;6.80;;
11090;SDS011;5599;52.210;21.046;2023-07-13T11:46:14;10.68;;;6.78;;
11090;SDS011;5599;52.210;21.046;2023-07-13T11:48:44;7.78;;;6.40;;
11090;SDS011;5599;52.210;21.046;2023-07-13T11:51:17;8.15;;;7.32;;
11090;SDS011;5599;52.210;21.046;2023-07-13T11:53:51;7.53;;;6.72;;
11090;SDS011;5599;52.210;21.046;2023-07-13T11:56:24;8.32;;;6.82;;
11090;SDS011;5599;52.210;21.046;2023-07-13T11:58:54;7.95;;;6.35;;
11090;SDS011;5599;52.210;21.046;2023-07-13T12:01:26;9.35;;;7.00;;
11090;SDS011;5599;52.210;21.046;2023-07-13T12:04:00;7.45;;;6.35;;
11090;SDS011;5599;52.210;21.046;2023-07-13T12:06:32;6.78;;;5.68;;
11090;SDS011;5599;52.210;21.046;2023-07-13T12:09:10;8.45;;;5.78;;
11090;SDS011;5599;52.210;21.046;2023-07-13T12:11:41;10.73;;;6.45;;
11090;SDS011;5599;52.210;21.046;2023-07-13T12:14:14;6.72;;;5.40;;
11090;SDS011;5599;52.210;21.046;2023-07-13T12:16:45;7.70;;;5.43;;
11090;SDS011;5599;52.210;21.046;2023-07-13T12:19:17;6.82;;;5.30;;
11090;SDS011;5599;52.210;21.046;2023-07-13T12:21:48;7.13;;;5.68;;
11090;SDS011;5599;52.210;21.046;2023-07-13T12:24:22;14.73;;;6.65;;
11090;SDS011;5599;52.210;21.046;2023-07-13T12:26:53;7.07;;;6.18;;
11090;SDS011;5599;52.210;21.046;2023-07-13T12:29:24;8.10;;;6.13;;
11090;SDS011;5599;52.210;21.046;2023-07-13T12:31:54;9.38;;;6.43;;
11090;SDS011;5599;52.210;21.046;2023-07-13T12:34:24;9.93;;;7.70;;
11090;SDS011;5599;52.210;21.046;2023-07-13T12:36:54;10.13;;;7.15;;
11090;SDS011;5599;52.210;21.046;2023-07-13T12:39:28;11.65;;;6.63;;
11090;SDS011;5599;52.210;21.046;2023-07-13T12:42:18;9.90;;;7.32;;
11090;SDS011;5599;52.210;21.046;2023-07-13T12:44:52;8.93;;;7.85;;
11090;SDS011;5599;52.210;21.046;2023-07-13T12:47:22;8.07;;;7.22;;
11090;SDS011;5599;52.210;21.046;2023-07-13T12:49:53;9.32;;;7.30;;
11090;SDS011;5599;52.210;21.046;2023-07-13T12:52:27;9.90;;;7.93;;
11090;SDS011;5599;52.210;21.046;2023-07-13T12:55:05;11.10;;;7.85;;
11090;SDS011;5599;52.210;21.046;2023-07-13T12:57:43;9.27;;;8.05;;
11090;SDS011;5599;52.210;21.046;2023-07-13T13:00:22;8.43;;;7.38;;
11090;SDS011;5599;52.210;21.046;2023-07-13T13:02:54;9.52;;;7.93;;
11090;SDS011;5599;52.210;21.046;2023-07-13T13:05:44;10.77;;;7.78;;
11090;SDS011;5599;52.210;21.046;2023-07-13T13:08:14;8.23;;;7.35;;
11090;SDS011;5599;52.210;21.046;2023-07-13T13:10:44;10.27;;;7.30;;
11090;SDS011;5599;52.210;21.046;2023-07-13T13:13:14;12.25;;;7.95;;
11090;SDS011;5599;52.210;21.046;2023-07-13T13:15:43;9.55;;;7.22;;
11090;SDS011;5599;52.210;21.046;2023-07-13T13:18:14;9.88;;;6.85;;
11090;SDS011;5599;52.210;21.046;2023-07-13T13:20:45;12.25;;;7.45;;
11090;SDS011;5599;52.210;21.046;2023-07-13T13:23:16;8.02;;;7.18;;
11090;SDS011;5599;52.210;21.046;2023-07-13T13:25:48;9.23;;;7.63;;
11090;SDS011;5599;52.210;21.046;2023-07-13T13:28:19;11.68;;;7.60;;
11090;SDS011;5599;52.210;21.046;2023-07-13T13:30:50;13.18;;;7.28;;
11090;SDS011;5599;52.210;21.046;2023-07-13T13:33:19;12.48;;;8.10;;
11090;SDS011;5599;52.210;21.046;2023-07-13T13:35:50;10.05;;;7.40;;
11090;SDS011;5599;52.210;21.046;2023-07-13T13:38:20;9.23;;;7.90;;
11090;SDS011;5599;52.210;21.046;2023-07-13T13:40:54;12.43;;;8.60;;
11090;SDS011;5599;52.210;21.046;2023-07-13T13:43:23;10.27;;;8.00;;
11090;SDS011;5599;52.210;21.046;2023-07-13T13:45:54;13.15;;;9.73;;
11090;SDS011;5599;52.210;21.046;2023-07-13T13:48:31;14.18;;;10.65;;
11090;SDS011;5599;52.210;21.046;2023-07-13T13:51:06;13.95;;;10.25;;
11090;SDS011;5599;52.210;21.046;2023-07-13T13:53:43;14.88;;;10.13;;
11090;SDS011;5599;52.210;21.046;2023-07-13T13:56:14;13.95;;;10.60;;
11090;SDS011;5599;52.210;21.046;2023-07-13T13:58:47;13.10;;;9.80;;
11090;SDS011;5599;52.210;21.046;2023-07-13T14:01:16;13.70;;;9.57;;
11090;SDS011;5599;52.210;21.046;2023-07-13T14:03:48;18.60;;;10.50;;
11090;SDS011;5599;52.210;21.046;2023-07-13T14:06:18;13.07;;;10.57;;
11090;SDS011;5599;52.210;21.046;2023-07-13T14:08:47;13.85;;;10.15;;
11090;SDS011;5599;52.210;21.046;2023-07-13T14:11:19;15.85;;;10.40;;
11090;SDS011;5599;52.210;21.046;2023-07-13T14:13:50;14.35;;;10.20;;
11090;SDS011;5599;52.210;21.046;2023-07-13T14:16:24;11.32;;;9.65;;
11090;SDS011;5599;52.210;21.046;2023-07-13T14:18:59;11.88;;;10.02;;
11090;SDS011;5599;52.210;21.046;2023-07-13T14:21:29;9.65;;;8.82;;
11090;SDS011;5599;52.210;21.046;2023-07-13T14:23:58;11.45;;;10.35;;
11090;SDS011;5599;52.210;21.046;2023-07-13T14:26:29;12.85;;;9.48;;
11090;SDS011;5599;52.210;21.046;2023-07-13T14:29:04;15.73;;;12.18;;
11090;SDS011;5599;52.210;21.046;2023-07-13T14:31:40;11.20;;;10.02;;
11090;SDS011;5599;52.210;21.046;2023-07-13T14:34:10;12.98;;;9.77;;
11090;SDS011;5599;52.210;21.046;2023-07-13T14:36:42;10.20;;;9.15;;
11090;SDS011;5599;52.210;21.046;2023-07-13T14:39:14;9.82;;;8.82;;
11090;SDS011;5599;52.210;21.046;2023-07-13T14:41:49;10.63;;;9.52;;
11090;SDS011;5599;52.210;21.046;2023-07-13T14:44:20;11.50;;;9.50;;
11090;SDS011;5599;52.210;21.046;2023-07-13T14:46:51;11.15;;;8.57;;
11090;SDS011;5599;52.210;21.046;2023-07-13T14:49:23;8.93;;;7.80;;
11090;SDS011;5599;52.210;21.046;2023-07-13T14:51:54;9.38;;;7.65;;
11090;SDS011;5599;52.210;21.046;2023-07-13T14:54:25;9.10;;;7.47;;
11090;SDS011;5599;52.210;21.046;2023-07-13T14:56:56;7.72;;;6.95;;
11090;SDS011;5599;52.210;21.046;2023-07-13T14:59:25;7.68;;;6.20;;
11090;SDS011;5599;52.210;21.046;2023-07-13T15:01:55;7.45;;;6.25;;
11090;SDS011;5599;52.210;21.046;2023-07-13T15:04:25;8.48;;;6.70;;
11090;SDS011;5599;52.210;21.046;2023-07-13T15:06:55;6.70;;;6.10;;
11090;SDS011;5599;52.210;21.046;2023-07-13T15:09:26;6.60;;;6.03;;
11090;SDS011;5599;52.210;21.046;2023-07-13T15:11:58;8.10;;;6.10;;
11090;SDS011;5599;52.210;21.046;2023-07-13T15:14:27;8.00;;;5.97;;
11090;SDS011;5599;52.210;21.046;2023-07-13T15:16:59;7.00;;;6.00;;
11090;SDS011;5599;52.210;21.046;2023-07-13T15:19:29;5.90;;;5.30;;
11090;SDS011;5599;52.210;21.046;2023-07-13T15:22:00;5.57;;;5.07;;
11090;SDS011;5599;52.210;21.046;2023-07-13T15:24:30;6.10;;;4.60;;